Sunningdale, United Kingdom
Current Conditions -  °F | °C
As of 12:20 PM on Thursday 23 Oct 2014 (Local Time) from EGLF Reporting Station
Scattered Clouds Scattered Clouds  
Wind Chill: 59°   Ceiling: Unl
Heat Index: 59°   Visibility: 6mi
Dew Point: 52°   Wind: 13mph
Humidity: 77%   Direction: 230°SW
Pressure: 30.12"   Gusts: NA
Location:  51.38°N, 0.62°W
Report Text: EGLF 231120Z 23011KT 190V250 9999 FEW020 SCT034 15/11 Q1020
Loading
Personal Weather Stations






























Interactive Weather Map
Tropical Storm Tracking
New forecast layout! Learn more

10-Day Weather Forecast

Advertisements
Track Severe Weather on mobile